createdAt,value
2023-08-30T00:02:37.871Z,99819.50
2023-08-30T00:05:41.031Z,99817.78
2023-08-30T00:08:42.595Z,99816.13
2023-08-30T00:11:44.199Z,99812.56
2023-08-30T00:14:45.785Z,99812.75
2023-08-30T00:17:47.401Z,99810.00
2023-08-30T00:20:48.998Z,99815.47
2023-08-30T00:23:50.550Z,99815.69
2023-08-30T00:26:52.204Z,99809.59
2023-08-30T00:29:53.990Z,99818.41
2023-08-30T00:32:55.636Z,99804.78
2023-08-30T00:36:00.551Z,99810.84
2023-08-30T00:39:03.264Z,99810.84
2023-08-30T00:42:08.269Z,99805.22
2023-08-30T00:45:10.807Z,99799.94
2023-08-30T00:48:13.276Z,99803.53
2023-08-30T00:51:15.181Z,99805.38
2023-08-30T00:54:17.713Z,99803.72
2023-08-30T00:57:19.398Z,99802.88
2023-08-30T01:00:20.957Z,99803.91
2023-08-30T01:03:23.531Z,99800.34
2023-08-30T01:06:25.116Z,99795.72
2023-08-30T01:09:26.968Z,99797.63
2023-08-30T01:12:40.995Z,99792.16
2023-08-30T01:15:44.035Z,99796.97
2023-08-30T01:18:46.291Z,99803.47
2023-08-30T01:21:57.422Z,99790.66
2023-08-30T01:25:16.368Z,99795.28
2023-08-30T01:28:21.987Z,99793.63
2023-08-30T01:31:24.457Z,99784.78
2023-08-30T01:34:26.817Z,99782.06
2023-08-30T01:37:29.566Z,99780.34
2023-08-30T01:40:37.710Z,99775.53
2023-08-30T01:43:40.155Z,99774.28
2023-08-30T01:46:42.111Z,99780.56
2023-08-30T01:49:44.684Z,99775.13
2023-08-30T01:52:47.513Z,99772.56
2023-08-30T01:55:49.224Z,99763.56
2023-08-30T01:58:50.950Z,99763.56
2023-08-30T02:01:52.793Z,99760.81
2023-08-30T02:04:54.423Z,99765.44
2023-08-30T02:08:13.981Z,99769.00
2023-08-30T02:11:22.693Z,99764.59
2023-08-30T02:14:27.251Z,99775.53
2023-08-30T02:17:30.823Z,99762.06
2023-08-30T02:20:33.328Z,99760.38
2023-08-30T02:23:34.869Z,99758.66
2023-08-30T02:26:36.566Z,99755.09
2023-08-30T02:29:38.877Z,99753.19
2023-08-30T02:32:41.617Z,99761.38
2023-08-30T02:35:43.931Z,99746.06
2023-08-30T02:38:45.488Z,99747.97
2023-08-30T02:41:50.298Z,99742.50
2023-08-30T02:44:51.887Z,99747.09
2023-08-30T02:47:57.307Z,99739.56
2023-08-30T02:50:58.940Z,99742.69
2023-08-30T02:54:00.618Z,99745.44
2023-08-30T02:57:02.301Z,99738.31
2023-08-30T03:00:06.941Z,99740.81
2023-08-30T03:03:08.672Z,99738.31
2023-08-30T03:06:10.317Z,99746.47
2023-08-30T03:09:12.818Z,99743.09
2023-08-30T03:12:14.377Z,99730.31
2023-08-30T03:15:16.023Z,99735.75
2023-08-30T03:18:17.633Z,99743.94
2023-08-30T03:21:19.270Z,99743.94
2023-08-30T03:24:20.783Z,99741.41
2023-08-30T03:27:22.717Z,99746.84
2023-08-30T03:30:24.410Z,99751.47
2023-08-30T03:33:26.356Z,99745.19
2023-08-30T03:36:27.957Z,99744.13
2023-08-30T03:39:29.880Z,99738.88
2023-08-30T03:42:31.479Z,99727.16
2023-08-30T03:45:36.983Z,99735.94
2023-08-30T03:48:38.948Z,99723.56
2023-08-30T03:51:40.635Z,99720.81
2023-08-30T03:54:42.178Z,99722.53
2023-08-30T03:57:43.781Z,99733.44
2023-08-30T04:00:45.688Z,99723.56
2023-08-30T04:03:47.342Z,99717.25
2023-08-30T04:06:49.058Z,99715.38
2023-08-30T04:09:51.580Z,99709.06
2023-08-30T04:12:53.114Z,99708.25
2023-08-30T04:15:54.794Z,99716.41
2023-08-30T04:18:56.437Z,99706.56
2023-08-30T04:21:58.065Z,99708.25
2023-08-30T04:24:59.641Z,99702.13
2023-08-30T04:28:03.917Z,99694.78
2023-08-30T04:31:05.556Z,99700.25
2023-08-30T04:34:07.199Z,99693.13
2023-08-30T04:37:08.736Z,99685.78
2023-08-30T04:40:11.309Z,99695.66
2023-08-30T04:43:13.351Z,99694.78
2023-08-30T04:46:14.964Z,99689.34
2023-08-30T04:49:17.062Z,99686.59
2023-08-30T04:52:18.968Z,99696.69
2023-08-30T04:55:20.736Z,99697.75
2023-08-30T04:58:22.828Z,99694.78
2023-08-30T05:01:24.421Z,99693.97
2023-08-30T05:04:29.804Z,99699.41
2023-08-30T05:07:31.438Z,99687.66
2023-08-30T05:10:33.521Z,99691.22
2023-08-30T05:13:35.081Z,99693.13
2023-08-30T05:16:37.059Z,99695.84
2023-08-30T05:19:38.649Z,99697.75
2023-08-30T05:22:40.658Z,99695.84
2023-08-30T05:25:42.205Z,99694.19
2023-08-30T05:28:44.405Z,99688.72
2023-08-30T05:31:46.117Z,99693.31
2023-08-30T05:35:07.004Z,99694.19
2023-08-30T05:38:24.087Z,99689.75
2023-08-30T05:41:43.236Z,99693.31
2023-08-30T05:44:44.806Z,99695.00
2023-08-30T05:47:46.537Z,99699.63
2023-08-30T05:50:48.182Z,99710.53
2023-08-30T05:53:49.885Z,99709.66
2023-08-30T05:56:51.675Z,99706.94
2023-08-30T05:59:53.711Z,99702.34
2023-08-30T06:02:55.291Z,99697.75
2023-08-30T06:05:56.936Z,99683.25
2023-08-30T06:08:58.819Z,99683.03
2023-08-30T06:12:00.719Z,99680.31
2023-08-30T06:15:02.281Z,99685.59
2023-08-30T06:18:04.608Z,99675.50
2023-08-30T06:21:06.321Z,99683.50
2023-08-30T06:24:08.031Z,99676.16
2023-08-30T06:27:09.715Z,99681.38
2023-08-30T06:30:12.310Z,99683.09
2023-08-30T06:33:13.887Z,99682.25
2023-08-30T06:36:17.973Z,99684.75
2023-08-30T06:39:19.761Z,99684.56
2023-08-30T06:42:21.624Z,99681.84
2023-08-30T06:45:23.141Z,99681.63
2023-08-30T06:48:24.991Z,99677.66
2023-08-30T06:51:26.552Z,99680.38
2023-08-30T06:54:28.225Z,99680.22
2023-08-30T06:57:29.788Z,99672.03
2023-08-30T07:00:31.433Z,99665.34
2023-08-30T07:03:33.010Z,99664.28
2023-08-30T07:06:34.709Z,99656.09
2023-08-30T07:09:36.239Z,99658.63
2023-08-30T07:12:37.910Z,99658.63
2023-08-30T07:15:41.069Z,99651.94
2023-08-30T07:18:42.797Z,99648.38
2023-08-30T07:21:44.474Z,99651.94
2023-08-30T07:24:46.070Z,99656.31
2023-08-30T07:27:47.665Z,99649.19
2023-08-30T07:30:49.304Z,99650.03
2023-08-30T07:33:50.879Z,99652.56
2023-08-30T07:36:55.882Z,99646.50
2023-08-30T07:39:57.417Z,99645.03
2023-08-30T07:43:00.078Z,99651.31
2023-08-30T07:46:01.807Z,99650.25
2023-08-30T07:49:03.813Z,99647.53
2023-08-30T07:52:05.905Z,99648.38
2023-08-30T07:55:07.759Z,99652.81
2023-08-30T07:58:11.366Z,99655.13
2023-08-30T08:01:13.219Z,99644.38
2023-08-30T08:04:14.790Z,99651.56
2023-08-30T08:07:16.785Z,99648.59
2023-08-30T08:10:18.454Z,99651.31
2023-08-30T08:13:20.228Z,99653.22
2023-08-30T08:16:21.904Z,99658.47
2023-08-30T08:19:26.000Z,99657.66
2023-08-30T08:22:27.996Z,99647.56
2023-08-30T08:25:29.956Z,99653.88
2023-08-30T08:28:31.545Z,99645.47
2023-08-30T08:31:33.217Z,99640.03
2023-08-30T08:34:34.748Z,99642.53
2023-08-30T08:37:36.381Z,99626.16
2023-08-30T08:40:42.490Z,99635.00
2023-08-30T08:43:46.110Z,99629.34
2023-08-30T08:46:49.169Z,99629.34
2023-08-30T08:49:52.200Z,99640.88
2023-08-30T08:52:59.979Z,99637.31
2023-08-30T08:56:03.089Z,99637.94
2023-08-30T08:59:07.605Z,99640.66
2023-08-30T09:02:12.954Z,99630.41
2023-08-30T09:05:15.639Z,99632.28
2023-08-30T09:08:17.941Z,99633.97
2023-08-30T09:11:19.534Z,99631.22
2023-08-30T09:14:21.265Z,99638.34
2023-08-30T09:17:23.000Z,99634.59
2023-08-30T09:20:24.647Z,99637.34
2023-08-30T09:23:26.928Z,99648.25
2023-08-30T09:26:29.357Z,99647.19
2023-08-30T09:29:30.933Z,99643.22
2023-08-30T09:32:32.593Z,99642.38
2023-08-30T09:35:44.458Z,99650.16
2023-08-30T09:38:50.040Z,99645.56
2023-08-30T09:41:52.061Z,99637.56
2023-08-30T09:44:53.840Z,99635.66
2023-08-30T09:47:55.493Z,99631.03
2023-08-30T09:50:59.424Z,99624.31
2023-08-30T09:54:06.850Z,99630.66
2023-08-30T09:57:09.932Z,99625.19
2023-08-30T10:00:15.330Z,99635.03
2023-08-30T10:03:30.430Z,99632.50
2023-08-30T10:06:33.570Z,99635.88
2023-08-30T10:09:48.665Z,99626.66
2023-08-30T10:13:07.964Z,99624.97
2023-08-30T10:16:17.290Z,99613.00
2023-08-30T10:19:26.851Z,99618.25
2023-08-30T10:22:28.968Z,99617.59
2023-08-30T10:25:33.007Z,99619.31
2023-08-30T10:28:36.506Z,99617.41
2023-08-30T10:31:40.758Z,99615.53
2023-08-30T10:34:49.341Z,99617.22
2023-08-30T10:37:58.334Z,99616.16
2023-08-30T10:41:09.544Z,99612.59
2023-08-30T10:44:15.630Z,99608.81
2023-08-30T10:47:30.698Z,99605.25
2023-08-30T10:50:34.414Z,99606.28
2023-08-30T10:53:36.102Z,99598.94
2023-08-30T10:56:49.848Z,99598.53
2023-08-30T11:00:14.720Z,99601.25
2023-08-30T11:03:16.712Z,99599.78
2023-08-30T11:06:18.570Z,99594.31
2023-08-30T11:09:22.548Z,99594.97
2023-08-30T11:12:24.516Z,99582.34
2023-08-30T11:15:27.860Z,99573.94
2023-08-30T11:18:29.356Z,99573.31
2023-08-30T11:21:33.197Z,99567.44
2023-08-30T11:24:35.064Z,99572.88
2023-08-30T11:27:36.752Z,99562.81
2023-08-30T11:30:41.601Z,99563.44
2023-08-30T11:33:51.249Z,99561.56
2023-08-30T11:36:53.399Z,99556.31
2023-08-30T11:39:56.986Z,99545.19
2023-08-30T11:42:58.607Z,99547.28
2023-08-30T11:46:00.285Z,99536.13
2023-08-30T11:49:03.618Z,99531.53
2023-08-30T11:52:05.606Z,99522.28
2023-08-30T11:55:08.158Z,99511.34
2023-08-30T11:58:09.758Z,99520.38
2023-08-30T12:01:12.434Z,99505.69
2023-08-30T12:04:14.033Z,99512.00
2023-08-30T12:07:26.131Z,99504.22
2023-08-30T12:10:29.970Z,99499.81
2023-08-30T12:13:34.137Z,99506.09
2023-08-30T12:16:37.010Z,99504.22
2023-08-30T12:19:38.693Z,99497.72
2023-08-30T12:22:40.823Z,99486.78
2023-08-30T12:25:42.363Z,99483.00
2023-08-30T12:28:46.847Z,99484.91
2023-08-30T12:31:48.411Z,99484.66
2023-08-30T12:34:49.931Z,99485.09
2023-08-30T12:37:51.521Z,99490.56
2023-08-30T12:40:55.044Z,99484.88
2023-08-30T12:43:56.530Z,99479.84
2023-08-30T12:46:58.140Z,99477.09
2023-08-30T12:49:59.613Z,99481.72
2023-08-30T12:53:01.093Z,99475.44
2023-08-30T12:56:02.616Z,99475.44
2023-08-30T12:59:04.259Z,99472.91
2023-08-30T13:02:06.585Z,99473.53
2023-08-30T13:05:08.722Z,99472.72
2023-08-30T13:08:10.265Z,99468.28
2023-08-30T13:11:11.780Z,99460.09
2023-08-30T13:14:13.283Z,99459.06
2023-08-30T13:17:15.019Z,99460.94
2023-08-30T13:20:16.551Z,99453.78
2023-08-30T13:23:18.059Z,99468.28
2023-08-30T13:26:19.592Z,99455.50
2023-08-30T13:29:21.611Z,99454.63
2023-08-30T13:32:23.118Z,99452.75
2023-08-30T13:35:24.686Z,99453.59
2023-08-30T13:38:26.593Z,99451.69
2023-08-30T13:41:28.198Z,99453.59
2023-08-30T13:44:29.721Z,99452.75
2023-08-30T13:47:31.236Z,99458.00
2023-08-30T13:50:32.968Z,99446.22
2023-08-30T13:53:34.508Z,99441.84
2023-08-30T13:56:39.021Z,99439.72
2023-08-30T13:59:40.555Z,99435.31
2023-08-30T14:02:42.095Z,99432.56
2023-08-30T14:05:45.385Z,99434.25
2023-08-30T14:08:46.947Z,99429.84
2023-08-30T14:11:48.618Z,99427.94
2023-08-30T14:14:50.380Z,99427.94
2023-08-30T14:17:51.911Z,99425.22
2023-08-30T14:20:57.267Z,99430.47
2023-08-30T14:23:58.804Z,99436.78
2023-08-30T14:27:02.034Z,99443.06
2023-08-30T14:30:03.795Z,99463.03
2023-08-30T14:33:05.458Z,99470.19
2023-08-30T14:36:11.435Z,99460.91
2023-08-30T14:39:13.180Z,99466.63
2023-08-30T14:42:14.711Z,99459.25
2023-08-30T14:45:16.230Z,99456.53
2023-08-30T14:48:18.204Z,99456.28
2023-08-30T14:51:19.987Z,99459.03
2023-08-30T14:54:21.490Z,99449.78
2023-08-30T14:57:23.794Z,99457.75
2023-08-30T15:00:25.977Z,99449.56
2023-08-30T15:03:27.685Z,99459.66
2023-08-30T15:06:29.333Z,99459.47
2023-08-30T15:09:31.520Z,99454.00
2023-08-30T15:12:33.194Z,99459.47
2023-08-30T15:15:34.772Z,99448.72
2023-08-30T15:18:36.950Z,99453.38
2023-08-30T15:21:38.641Z,99453.16
2023-08-30T15:24:40.188Z,99456.94
2023-08-30T15:27:41.768Z,99465.94
2023-08-30T15:30:46.941Z,99465.13
2023-08-30T15:33:48.940Z,99463.44
2023-08-30T15:36:50.515Z,99464.50
2023-08-30T15:40:02.485Z,99471.41
2023-08-30T15:43:06.584Z,99480.88
2023-08-30T15:46:09.039Z,99487.41
2023-08-30T15:49:10.654Z,99485.72
2023-08-30T15:52:12.264Z,99487.59
2023-08-30T15:55:13.897Z,99487.00
2023-08-30T15:58:16.427Z,99482.38
2023-08-30T16:01:18.795Z,99478.81
2023-08-30T16:04:20.860Z,99476.47
2023-08-30T16:07:22.575Z,99486.38
2023-08-30T16:10:24.224Z,99481.94
2023-08-30T16:13:26.487Z,99477.53
2023-08-30T16:16:28.133Z,99484.06
2023-08-30T16:19:29.735Z,99478.81
2023-08-30T16:22:32.600Z,99479.00
2023-08-30T16:25:34.117Z,99481.53
2023-08-30T16:28:37.586Z,99490.97
2023-08-30T16:31:39.373Z,99483.84
2023-08-30T16:34:41.094Z,99487.63
2023-08-30T16:37:42.612Z,99493.06
2023-08-30T16:40:44.231Z,99482.78
2023-08-30T16:43:45.793Z,99483.22
2023-08-30T16:46:47.432Z,99478.59
2023-08-30T16:49:48.998Z,99469.56
2023-08-30T16:52:50.639Z,99474.38
2023-08-30T16:55:52.175Z,99489.91
2023-08-30T16:58:53.713Z,99491.09
2023-08-30T17:01:55.557Z,99496.13
2023-08-30T17:04:57.263Z,99506.25
2023-08-30T17:07:58.813Z,99500.19
2023-08-30T17:11:08.213Z,99499.56
2023-08-30T17:14:12.195Z,99496.22
2023-08-30T17:17:13.886Z,99495.81
2023-08-30T17:20:15.733Z,99499.56
2023-08-30T17:23:17.322Z,99501.88
2023-08-30T17:26:19.815Z,99504.00
2023-08-30T17:29:21.479Z,99496.44
2023-08-30T17:32:23.108Z,99494.34
2023-08-30T17:35:24.764Z,99501.28
2023-08-30T17:38:26.392Z,99506.53
2023-08-30T17:41:27.967Z,99502.75
2023-08-30T17:44:29.584Z,99512.41
2023-08-30T17:47:31.288Z,99514.94
2023-08-30T17:50:32.879Z,99505.06
2023-08-30T17:53:35.056Z,99497.50
2023-08-30T17:56:36.640Z,99511.97
2023-08-30T17:59:38.302Z,99503.78
2023-08-30T18:02:40.089Z,99476.28
2023-08-30T18:05:41.705Z,99490.97
2023-08-30T18:08:45.704Z,99489.09
2023-08-30T18:11:47.541Z,99496.44
2023-08-30T18:14:49.475Z,99500.88
2023-08-30T18:17:51.605Z,99500.88
2023-08-30T18:20:53.239Z,99490.13
2023-08-30T18:24:27.054Z,99491.59
2023-08-30T18:27:28.597Z,99511.97
2023-08-30T18:30:30.315Z,99505.69
2023-08-30T18:33:31.888Z,99510.31
2023-08-30T18:36:33.588Z,99493.94
2023-08-30T18:39:35.774Z,99488.47
2023-08-30T18:42:37.424Z,99481.94
2023-08-30T18:45:48.596Z,99484.47
2023-08-30T18:48:50.899Z,99474.81
2023-08-30T18:51:52.418Z,99487.22
2023-08-30T18:54:53.981Z,99488.88
2023-08-30T18:57:55.558Z,99492.66
2023-08-30T19:00:59.808Z,99500.63
2023-08-30T19:04:01.757Z,99500.03
2023-08-30T19:07:04.958Z,99492.88
2023-08-30T19:10:09.470Z,99484.69
2023-08-30T19:13:11.175Z,99484.91
2023-08-30T19:16:15.823Z,99482.19
2023-08-30T19:19:17.478Z,99504.03
2023-08-30T19:22:21.837Z,99500.44
2023-08-30T19:25:23.409Z,99516.81
2023-08-30T19:28:25.132Z,99534.25
2023-08-30T19:31:26.789Z,99524.38
2023-08-30T19:34:28.433Z,99521.66
2023-08-30T19:37:30.050Z,99519.13
2023-08-30T19:40:31.643Z,99530.88
2023-08-30T19:43:33.210Z,99524.78
2023-08-30T19:46:34.866Z,99531.13
2023-08-30T19:49:36.695Z,99536.56
2023-08-30T19:52:38.212Z,99543.06
2023-08-30T19:55:39.801Z,99541.41
2023-08-30T19:58:41.338Z,99555.03
2023-08-30T20:01:43.048Z,99554.22
2023-08-30T20:04:44.652Z,99538.03
2023-08-30T20:07:46.243Z,99554.41
2023-08-30T20:10:48.136Z,99559.88
2023-08-30T20:13:51.211Z,99557.97
2023-08-30T20:16:52.886Z,99554.59
2023-08-30T20:19:54.546Z,99556.31
2023-08-30T20:22:56.112Z,99565.75
2023-08-30T20:25:58.528Z,99566.59
2023-08-30T20:29:01.300Z,99566.59
2023-08-30T20:32:03.253Z,99581.06
2023-08-30T20:35:06.300Z,99570.16
2023-08-30T20:38:07.983Z,99564.88
2023-08-30T20:41:09.595Z,99557.56
2023-08-30T20:44:11.245Z,99548.50
2023-08-30T20:47:13.827Z,99562.16
2023-08-30T20:50:15.588Z,99558.81
2023-08-30T20:53:17.298Z,99550.63
2023-08-30T20:56:19.242Z,99548.72
2023-08-30T20:59:21.274Z,99552.50
2023-08-30T21:02:22.990Z,99552.72
2023-08-30T21:05:24.487Z,99564.47
2023-08-30T21:08:26.153Z,99569.09
2023-08-30T21:11:27.834Z,99567.41
2023-08-30T21:14:29.467Z,99566.78
2023-08-30T21:17:31.080Z,99571.38
2023-08-30T21:20:33.240Z,99577.91
2023-08-30T21:23:34.832Z,99569.91
2023-08-30T21:26:36.481Z,99579.16
2023-08-30T21:29:37.982Z,99575.59
2023-08-30T21:32:41.627Z,99575.59
2023-08-30T21:35:45.370Z,99564.88
2023-08-30T21:38:47.125Z,99564.03
2023-08-30T21:41:48.686Z,99556.91
2023-08-30T21:44:50.346Z,99569.91
2023-08-30T21:47:52.102Z,99570.75
2023-08-30T21:50:56.459Z,99573.47
2023-08-30T21:53:58.195Z,99575.56
2023-08-30T21:56:59.943Z,99566.53
2023-08-30T22:00:01.555Z,99573.06
2023-08-30T22:03:03.458Z,99578.50
2023-08-30T22:06:06.759Z,99577.66
2023-08-30T22:09:09.091Z,99566.13
2023-08-30T22:12:10.824Z,99571.59
2023-08-30T22:15:14.828Z,99578.91
2023-08-30T22:18:16.381Z,99577.22
2023-08-30T22:21:17.982Z,99583.75
2023-08-30T22:24:19.506Z,99584.59
2023-08-30T22:27:21.117Z,99580.16
2023-08-30T22:30:22.841Z,99579.53
2023-08-30T22:33:24.535Z,99583.28
2023-08-30T22:36:26.199Z,99587.91
2023-08-30T22:39:27.947Z,99592.53
2023-08-30T22:42:29.511Z,99598.00
2023-08-30T22:45:32.192Z,99595.28
2023-08-30T22:48:33.716Z,99602.81
2023-08-30T22:51:48.074Z,99606.38
2023-08-30T22:54:55.428Z,99611.84
2023-08-30T22:57:57.106Z,99599.44
2023-08-30T23:01:04.147Z,99604.47
2023-08-30T23:04:06.320Z,99590.22
2023-08-30T23:07:07.989Z,99584.13
2023-08-30T23:10:10.097Z,99584.97
2023-08-30T23:13:11.993Z,99588.75
2023-08-30T23:16:14.575Z,99587.88
2023-08-30T23:19:16.179Z,99587.88
2023-08-30T23:22:17.741Z,99587.88
2023-08-30T23:25:19.732Z,99582.44
2023-08-30T23:28:22.698Z,99590.84
2023-08-30T23:31:24.617Z,99596.06
2023-08-30T23:34:26.495Z,99583.69
2023-08-30T23:37:28.228Z,99592.72
2023-08-30T23:40:29.806Z,99596.50
2023-08-30T23:43:31.402Z,99598.38
2023-08-30T23:46:33.035Z,99603.84
2023-08-30T23:49:34.824Z,99602.13
2023-08-30T23:52:36.828Z,99593.09
2023-08-30T23:55:38.617Z,99601.28
2023-08-30T23:58:40.316Z,99606.13
